Time;durP1;ratioP1;P1;durP2;ratioP2;P2;SDS_P1;SDS_P2;PMS_P1;PMS_P2;Temp;Humidity;BMP_temperature;BMP_pressure;BME280_temperature;BME280_humidity;BME280_pressure;Samples;Min_cycle;Max_cycle;Signal;HPM_P1;HPM_P2
2021/12/06 00:00:51;;;;;;;5.70;4.80;;;5.10;99.90;;;;;;5052041;28;20235;-58
2021/12/06 00:03:22;;;;;;;6.27;4.70;;;5.20;99.90;;;;;;5051662;28;20213;-58
2021/12/06 00:05:49;;;;;;;7.33;4.63;;;5.10;99.90;;;;;;5051821;28;20213;-58
2021/12/06 00:08:16;;;;;;;8.13;5.23;;;4.90;99.90;;;;;;5051998;28;20221;-57
2021/12/06 00:10:44;;;;;;;6.33;5.00;;;4.70;99.90;;;;;;5051609;28;20575;-58
2021/12/06 00:13:11;;;;;;;6.00;4.80;;;4.80;99.90;;;;;;5051633;28;20206;-58
2021/12/06 00:15:40;;;;;;;5.07;4.57;;;4.90;99.90;;;;;;5051824;28;20216;-58
2021/12/06 00:18:06;;;;;;;5.80;4.60;;;5.00;99.90;;;;;;5051809;28;20285;-58
2021/12/06 00:20:33;;;;;;;5.53;4.60;;;5.00;99.90;;;;;;5051615;28;20222;-58
2021/12/06 00:23:00;;;;;;;7.47;5.07;;;5.10;99.90;;;;;;5051623;28;20229;-58
2021/12/06 00:25:27;;;;;;;7.20;5.07;;;5.20;99.90;;;;;;5051726;28;20209;-58
2021/12/06 00:27:53;;;;;;;6.10;4.90;;;5.20;99.90;;;;;;5051920;28;20205;-58
2021/12/06 00:30:21;;;;;;;7.17;5.27;;;5.20;99.90;;;;;;5051666;28;20205;-58
2021/12/06 00:32:49;;;;;;;6.47;5.43;;;5.20;99.90;;;;;;5051251;28;20256;-58
2021/12/06 00:35:21;;;;;;;7.43;5.60;;;5.30;99.90;;;;;;5051548;28;20213;-58
2021/12/06 00:37:56;;;;;;;4.73;4.03;;;5.30;99.90;;;;;;5051513;28;20244;-58
2021/12/06 00:40:26;;;;;;;5.20;3.43;;;5.30;99.90;;;;;;5051432;28;20590;-58
2021/12/06 00:42:53;;;;;;;5.47;3.53;;;5.40;99.90;;;;;;5051674;28;20299;-58
2021/12/06 00:45:20;;;;;;;4.87;3.80;;;5.40;99.90;;;;;;5051527;28;20209;-58
2021/12/06 00:47:48;;;;;;;4.00;3.53;;;5.40;99.90;;;;;;5051380;28;20209;-58
2021/12/06 00:50:16;;;;;;;5.17;4.30;;;5.40;99.90;;;;;;5051939;28;20206;-58
2021/12/06 00:52:44;;;;;;;5.07;4.47;;;5.40;99.90;;;;;;5051121;28;20710;-58
2021/12/06 00:55:11;;;;;;;5.13;4.20;;;5.40;99.90;;;;;;5051379;28;20580;-58
2021/12/06 00:57:38;;;;;;;7.33;5.00;;;5.40;99.90;;;;;;5052448;28;20205;-58
2021/12/06 01:00:08;;;;;;;7.77;5.07;;;5.40;99.90;;;;;;5055044;28;20216;-58
2021/12/06 01:02:35;;;;;;;7.10;5.03;;;5.50;99.90;;;;;;5055022;28;20226;-58
2021/12/06 01:05:05;;;;;;;7.40;5.13;;;5.50;99.90;;;;;;5055043;28;20210;-58
2021/12/06 01:07:32;;;;;;;5.90;5.23;;;5.50;99.90;;;;;;5055090;28;20202;-58
2021/12/06 01:09:58;;;;;;;6.37;4.97;;;5.50;99.90;;;;;;5054948;28;20206;-58
2021/12/06 01:12:25;;;;;;;7.63;4.87;;;5.60;99.90;;;;;;5054586;28;20594;-58
2021/12/06 01:14:52;;;;;;;5.70;4.60;;;5.50;99.90;;;;;;5054774;28;20241;-58
2021/12/06 01:17:19;;;;;;;6.67;4.90;;;5.30;99.90;;;;;;5054913;28;20209;-58
2021/12/06 01:19:46;;;;;;;9.57;4.97;;;5.30;99.90;;;;;;5054888;28;20252;-58
2021/12/06 01:22:22;;;;;;;5.53;4.20;;;5.10;99.90;;;;;;5054355;28;20615;-58
2021/12/06 01:24:55;;;;;;;5.87;4.10;;;5.10;99.90;;;;;;5054562;28;20739;-57
2021/12/06 01:27:42;;;;;;;4.83;3.87;;;4.90;99.90;;;;;;5054820;28;20198;-58
2021/12/06 01:30:28;;;;;;;5.87;4.70;;;4.80;99.90;;;;;;5054720;28;20213;-58
2021/12/06 01:33:30;;;;;;;5.40;4.17;;;4.60;99.90;;;;;;5054712;28;20230;-58
2021/12/06 01:41:24;;;;;;;6.43;4.23;;;4.10;99.90;;;;;;5054147;28;20231;-58
2021/12/06 01:44:07;;;;;;;7.03;4.10;;;4.20;99.90;;;;;;5054026;28;20213;-58
2021/12/06 01:46:35;;;;;;;5.23;4.40;;;4.30;99.90;;;;;;5054365;28;20224;-57
2021/12/06 01:49:02;;;;;;;6.00;4.80;;;4.40;99.90;;;;;;5054092;28;20209;-57
2021/12/06 01:51:29;;;;;;;4.13;3.70;;;4.50;99.90;;;;;;5054247;28;20221;-58
2021/12/06 01:53:57;;;;;;;6.37;4.13;;;4.30;99.90;;;;;;5053866;28;20206;-57
2021/12/06 01:56:24;;;;;;;4.97;3.70;;;4.20;99.90;;;;;;5054049;28;20209;-57
2021/12/06 01:58:51;;;;;;;5.03;3.90;;;4.20;99.90;;;;;;5054266;28;20217;-58
2021/12/06 02:01:20;;;;;;;4.57;4.00;;;4.20;99.90;;;;;;5054039;28;20233;-58
2021/12/06 02:03:47;;;;;;;5.37;3.73;;;4.20;99.90;;;;;;5053766;28;20263;-58
2021/12/06 02:06:14;;;;;;;5.53;4.00;;;4.20;99.90;;;;;;5053888;28;20210;-58
2021/12/06 02:08:40;;;;;;;6.00;3.97;;;4.20;99.90;;;;;;5053576;28;20206;-58
2021/12/06 02:11:09;;;;;;;4.87;4.33;;;4.20;99.90;;;;;;5053854;28;20287;-58
2021/12/06 02:13:43;;;;;;;6.17;4.53;;;4.20;99.90;;;;;;5053741;28;20233;-58
2021/12/06 02:16:10;;;;;;;6.77;5.00;;;4.30;99.90;;;;;;5053754;28;20221;-58
2021/12/06 02:18:45;;;;;;;6.53;5.33;;;4.50;99.90;;;;;;5053855;28;20674;-58
2021/12/06 02:21:23;;;;;;;5.67;5.07;;;4.60;99.90;;;;;;5053356;28;20264;-58
2021/12/06 02:23:50;;;;;;;5.73;5.00;;;4.80;99.90;;;;;;5053586;28;20209;-58
2021/12/06 02:26:17;;;;;;;7.23;5.00;;;4.80;99.90;;;;;;5053680;28;20210;-58
2021/12/06 02:28:44;;;;;;;5.60;4.70;;;4.90;99.90;;;;;;5053531;28;20206;-58
2021/12/06 02:31:12;;;;;;;7.37;4.80;;;5.00;99.90;;;;;;5053397;28;20225;-58
2021/12/06 02:33:39;;;;;;;5.33;4.70;;;5.10;99.90;;;;;;5053026;28;20206;-57
2021/12/06 02:36:06;;;;;;;6.40;4.40;;;5.20;99.90;;;;;;5053204;28;20288;-58
2021/12/06 02:38:34;;;;;;;8.07;4.50;;;5.40;99.90;;;;;;5053433;28;20211;-58
2021/12/06 02:41:01;;;;;;;7.63;5.57;;;5.40;99.90;;;;;;5053140;28;20238;-58
2021/12/06 02:43:28;;;;;;;5.80;5.20;;;5.50;99.90;;;;;;5053089;28;20213;-58
2021/12/06 02:45:54;;;;;;;5.17;4.53;;;5.50;99.90;;;;;;5053154;28;20213;-58
2021/12/06 02:48:21;;;;;;;5.30;4.50;;;5.60;99.90;;;;;;5052984;28;20209;-57
2021/12/06 02:50:52;;;;;;;5.47;4.90;;;5.60;99.90;;;;;;5053250;28;20243;-58
2021/12/06 02:53:21;;;;;;;5.60;4.57;;;5.60;99.90;;;;;;5052811;28;20202;-58
2021/12/06 02:55:52;;;;;;;8.27;4.83;;;5.70;99.90;;;;;;5053023;28;20202;-57
2021/12/06 02:58:43;;;;;;;5.10;4.07;;;5.70;99.90;;;;;;5053143;28;20206;-58
2021/12/06 03:01:12;;;;;;;5.57;4.60;;;5.80;99.90;;;;;;5052878;28;20230;-58
2021/12/06 03:03:39;;;;;;;5.97;4.70;;;5.70;99.90;;;;;;5052824;28;20205;-59
2021/12/06 03:06:09;;;;;;;5.43;4.40;;;5.70;99.90;;;;;;5052795;28;20206;-57
2021/12/06 03:08:39;;;;;;;6.23;4.40;;;5.70;99.90;;;;;;5053007;28;20209;-58
2021/12/06 03:11:09;;;;;;;6.47;4.20;;;5.80;99.90;;;;;;5052715;28;20217;-57
2021/12/06 03:13:36;;;;;;;5.20;4.40;;;5.70;99.90;;;;;;5052346;28;20626;-57
2021/12/06 03:16:03;;;;;;;6.10;4.37;;;5.80;99.90;;;;;;5052928;28;20210;-57
2021/12/06 03:18:30;;;;;;;4.90;3.43;;;5.80;99.90;;;;;;5052823;28;20216;-57
2021/12/06 03:20:57;;;;;;;5.63;3.90;;;5.80;99.90;;;;;;5051975;28;20225;-58
2021/12/06 03:23:24;;;;;;;4.20;3.60;;;5.80;99.90;;;;;;5052333;28;20255;-58
2021/12/06 03:25:50;;;;;;;5.83;3.93;;;5.70;99.90;;;;;;5052656;28;20205;-59
2021/12/06 03:28:18;;;;;;;4.27;3.73;;;5.60;99.90;;;;;;5052891;28;20255;-58
2021/12/06 03:30:45;;;;;;;5.03;4.30;;;5.50;99.90;;;;;;5053430;28;20255;-58
2021/12/06 03:33:12;;;;;;;6.63;3.93;;;5.40;99.90;;;;;;5052992;28;20618;-59
2021/12/06 03:35:39;;;;;;;4.70;3.80;;;5.40;99.90;;;;;;5054058;28;20202;-59
2021/12/06 03:38:06;;;;;;;5.23;4.00;;;5.20;99.90;;;;;;5053488;28;20209;-58
2021/12/06 03:40:33;;;;;;;6.40;5.13;;;5.10;99.90;;;;;;5052289;28;20209;-57
2021/12/06 03:42:59;;;;;;;4.33;3.93;;;5.10;99.90;;;;;;5051840;28;20697;-58
2021/12/06 03:45:27;;;;;;;5.90;3.87;;;5.10;99.90;;;;;;5052614;28;20209;-59
2021/12/06 03:47:54;;;;;;;5.33;3.60;;;5.10;99.90;;;;;;5052043;28;20213;-58
2021/12/06 03:50:21;;;;;;;5.10;4.07;;;5.20;99.90;;;;;;5052086;28;20246;-59
2021/12/06 03:52:48;;;;;;;5.43;4.10;;;5.30;99.90;;;;;;5051827;28;20225;-59
2021/12/06 03:55:14;;;;;;;6.13;5.13;;;5.30;99.90;;;;;;5052299;28;20213;-58
2021/12/06 03:57:41;;;;;;;6.00;4.07;;;5.40;99.90;;;;;;5052120;28;20213;-57
2021/12/06 04:00:09;;;;;;;6.50;4.13;;;5.40;99.90;;;;;;5052107;28;20253;-60
2021/12/06 04:02:38;;;;;;;4.93;4.03;;;5.50;99.90;;;;;;5051603;28;20229;-58
2021/12/06 04:05:06;;;;;;;7.33;4.17;;;5.50;99.90;;;;;;5051869;28;20800;-58
2021/12/06 04:07:33;;;;;;;6.03;4.10;;;5.60;99.90;;;;;;5051868;28;20468;-59
2021/12/06 04:10:00;;;;;;;4.10;3.70;;;5.60;99.90;;;;;;5052207;28;20216;-59
2021/12/06 04:12:26;;;;;;;5.27;3.83;;;5.70;99.90;;;;;;5051801;28;20233;-59
2021/12/06 04:14:53;;;;;;;5.33;3.97;;;5.70;99.90;;;;;;5052021;28;20202;-59
2021/12/06 04:17:20;;;;;;;5.13;4.30;;;5.70;99.90;;;;;;5051766;28;20221;-58
2021/12/06 04:19:48;;;;;;;4.30;3.90;;;5.80;99.90;;;;;;5051813;28;20205;-58
2021/12/06 04:22:16;;;;;;;5.30;4.20;;;5.80;99.90;;;;;;5051516;28;20225;-58
2021/12/06 04:24:43;;;;;;;5.10;4.50;;;5.80;99.90;;;;;;5051849;28;20213;-58
2021/12/06 04:27:14;;;;;;;6.00;4.90;;;5.80;99.90;;;;;;5051867;28;20433;-58
2021/12/06 04:29:42;;;;;;;5.80;4.97;;;5.80;99.90;;;;;;5051769;28;20213;-58
2021/12/06 04:32:09;;;;;;;6.07;4.87;;;5.80;99.90;;;;;;5053605;28;20233;-59
2021/12/06 04:34:36;;;;;;;6.50;4.83;;;5.70;99.90;;;;;;5055233;28;20205;-59
2021/12/06 04:37:05;;;;;;;5.27;4.60;;;5.70;99.90;;;;;;5055723;28;20210;-58
2021/12/06 04:39:32;;;;;;;5.63;4.90;;;5.50;99.90;;;;;;5055474;28;20550;-59
2021/12/06 04:41:59;;;;;;;5.40;4.87;;;5.50;99.90;;;;;;5055455;28;20287;-58
2021/12/06 04:44:26;;;;;;;5.93;5.33;;;5.50;99.90;;;;;;5055349;28;20631;-58
2021/12/06 04:46:53;;;;;;;6.07;5.20;;;5.60;99.90;;;;;;5055582;28;20213;-57
2021/12/06 04:49:20;;;;;;;6.77;5.30;;;5.60;99.90;;;;;;5055256;28;20212;-58
2021/12/06 04:51:50;;;;;;;5.80;5.20;;;5.60;99.90;;;;;;5055343;28;20312;-59
2021/12/06 04:54:22;;;;;;;6.00;5.40;;;5.70;99.90;;;;;;5055294;28;20206;-59
2021/12/06 04:56:52;;;;;;;6.10;5.47;;;5.70;99.90;;;;;;5055474;28;20210;-58
2021/12/06 04:59:24;;;;;;;6.53;5.27;;;5.80;99.90;;;;;;5055340;28;20213;-58
2021/12/06 05:01:54;;;;;;;6.63;5.60;;;5.80;99.90;;;;;;5055049;28;20355;-59
2021/12/06 05:04:25;;;;;;;7.07;5.70;;;5.70;99.90;;;;;;5055433;28;20213;-59
2021/12/06 05:06:58;;;;;;;6.60;5.70;;;5.70;99.90;;;;;;5055270;28;20214;-59
2021/12/06 05:09:29;;;;;;;8.37;6.50;;;5.70;99.90;;;;;;5055131;28;20275;-58
2021/12/06 05:11:57;;;;;;;6.57;5.60;;;5.70;99.90;;;;;;5054955;28;20222;-58
2021/12/06 05:14:25;;;;;;;6.30;5.70;;;5.70;99.90;;;;;;5054830;28;20209;-58
2021/12/06 05:16:52;;;;;;;6.53;5.03;;;5.70;99.90;;;;;;5055015;28;20209;-58
2021/12/06 05:19:19;;;;;;;6.17;5.20;;;5.60;99.90;;;;;;5054931;28;20209;-59
2021/12/06 05:21:46;;;;;;;6.57;5.87;;;5.60;99.90;;;;;;5054632;28;20279;-59
2021/12/06 05:24:15;;;;;;;7.00;5.60;;;5.60;99.90;;;;;;5054455;28;20205;-59
2021/12/06 05:26:44;;;;;;;6.43;5.83;;;5.60;99.90;;;;;;5054302;28;20213;-60
2021/12/06 05:29:14;;;;;;;6.67;5.63;;;5.60;99.90;;;;;;5054383;28;20209;-57
2021/12/06 05:31:41;;;;;;;8.20;6.90;;;5.60;99.90;;;;;;5054571;28;20232;-58
2021/12/06 05:34:15;;;;;;;9.77;7.63;;;5.50;99.90;;;;;;5054317;28;20205;-58
2021/12/06 05:36:42;;;;;;;9.50;7.17;;;5.40;99.90;;;;;;5054471;28;20245;-57
2021/12/06 05:39:09;;;;;;;8.80;6.87;;;5.40;99.90;;;;;;5054381;28;20214;-58
2021/12/06 05:41:36;;;;;;;7.07;6.37;;;5.40;99.90;;;;;;5054193;28;20237;-58
2021/12/06 05:44:05;;;;;;;8.60;7.67;;;5.40;99.90;;;;;;5054069;28;20231;-58
2021/12/06 05:46:32;;;;;;;7.63;6.87;;;5.40;99.90;;;;;;5054285;28;20213;-57
2021/12/06 05:48:59;;;;;;;9.17;7.43;;;5.30;99.90;;;;;;5054241;28;20251;-58
2021/12/06 05:51:26;;;;;;;9.83;7.80;;;5.30;99.90;;;;;;5054291;28;20221;-58
2021/12/06 05:53:53;;;;;;;8.53;7.57;;;5.20;99.90;;;;;;5053991;28;20615;-57
2021/12/06 05:56:20;;;;;;;9.47;7.87;;;5.20;99.90;;;;;;5054112;28;20221;-58
2021/12/06 05:58:47;;;;;;;10.70;7.87;;;5.30;99.90;;;;;;5054210;28;20213;-59
2021/12/06 06:01:15;;;;;;;9.00;7.60;;;5.10;99.90;;;;;;5053775;28;20222;-58
2021/12/06 06:03:42;;;;;;;7.80;7.00;;;4.80;99.90;;;;;;5053898;28;20709;-58
2021/12/06 06:06:09;;;;;;;8.93;7.20;;;4.50;99.90;;;;;;5053616;28;20217;-58
2021/12/06 06:08:36;;;;;;;7.73;6.87;;;4.20;99.90;;;;;;5053551;28;20232;-58
2021/12/06 06:11:03;;;;;;;11.27;8.23;;;4.00;99.90;;;;;;5053588;28;20598;-58
2021/12/06 06:13:30;;;;;;;12.37;8.73;;;4.10;99.90;;;;;;5054537;28;20212;-58
2021/12/06 06:15:57;;;;;;;26.33;16.93;;;4.00;99.90;;;;;;5054228;28;20208;-58
2021/12/06 06:18:25;;;;;;;11.00;9.33;;;4.10;99.90;;;;;;5053904;28;20206;-59
2021/12/06 06:20:55;;;;;;;11.63;9.90;;;4.40;99.90;;;;;;5053715;28;20399;-58
2021/12/06 06:23:23;;;;;;;11.03;9.93;;;4.70;99.90;;;;;;5053428;28;20269;-58
2021/12/06 06:25:51;;;;;;;13.37;10.77;;;4.90;99.90;;;;;;5053625;28;20288;-58
2021/12/06 06:28:17;;;;;;;16.13;11.70;;;5.10;99.90;;;;;;5053588;28;20604;-57
2021/12/06 06:30:44;;;;;;;14.07;12.00;;;5.30;99.90;;;;;;5053258;28;20205;-57
2021/12/06 06:33:11;;;;;;;17.27;12.50;;;5.40;99.90;;;;;;5052972;28;20204;-58
2021/12/06 06:35:39;;;;;;;17.17;13.03;;;5.50;99.90;;;;;;5053067;28;20731;-56
2021/12/06 06:38:06;;;;;;;14.87;13.00;;;5.60;99.90;;;;;;5053212;28;20209;-58
2021/12/06 06:40:33;;;;;;;19.43;14.93;;;5.60;99.90;;;;;;5053431;28;20213;-58
2021/12/06 06:42:59;;;;;;;16.13;12.97;;;5.60;99.90;;;;;;5106352;22;20228;-66
2021/12/06 06:45:27;;;;;;;16.33;13.13;;;5.70;99.90;;;;;;5092851;28;20201;-66
2021/12/06 06:47:54;;;;;;;17.80;12.40;;;5.80;99.90;;;;;;5092810;28;20200;-66
2021/12/06 06:50:21;;;;;;;14.53;12.30;;;5.80;99.90;;;;;;5092920;28;20671;-66
2021/12/06 06:52:50;;;;;;;15.33;12.53;;;5.90;99.90;;;;;;5092689;28;20243;-66
2021/12/06 06:55:17;;;;;;;15.70;12.10;;;5.80;99.90;;;;;;5092011;28;20208;-66
2021/12/06 06:57:46;;;;;;;16.73;12.13;;;5.70;99.90;;;;;;5092852;28;20265;-66
2021/12/06 07:00:16;;;;;;;16.93;11.90;;;5.70;99.90;;;;;;5092672;28;20210;-66
2021/12/06 07:02:43;;;;;;;16.20;12.10;;;5.80;99.90;;;;;;5092817;28;20232;-66
2021/12/06 07:05:10;;;;;;;15.07;11.63;;;5.90;99.90;;;;;;5092834;28;20204;-66
2021/12/06 07:07:38;;;;;;;18.27;11.83;;;6.00;99.90;;;;;;5092532;28;20223;-66
2021/12/06 07:10:07;;;;;;;16.60;12.97;;;6.10;99.90;;;;;;5092353;28;20690;-65
2021/12/06 07:12:41;;;;;;;16.70;11.73;;;6.10;99.90;;;;;;5092235;28;20568;-66
2021/12/06 07:15:10;;;;;;;18.90;13.70;;;6.10;99.90;;;;;;5092269;28;20210;-66
2021/12/06 07:17:36;;;;;;;17.57;12.87;;;6.20;99.90;;;;;;5092230;28;20250;-66
2021/12/06 07:20:04;;;;;;;14.57;11.90;;;6.20;99.90;;;;;;5092468;28;20208;-66
2021/12/06 07:22:31;;;;;;;14.47;12.23;;;6.30;99.90;;;;;;5092422;28;20228;-66
2021/12/06 07:24:58;;;;;;;15.23;11.70;;;6.30;99.90;;;;;;5092157;28;20212;-66
2021/12/06 07:27:26;;;;;;;17.17;12.47;;;6.30;99.90;;;;;;5092050;28;20204;-66
2021/12/06 07:29:52;;;;;;;17.93;12.73;;;6.30;99.90;;;;;;5092127;28;20210;-66
2021/12/06 07:32:19;;;;;;;16.13;13.50;;;6.30;99.90;;;;;;5092286;28;20228;-66
2021/12/06 07:34:47;;;;;;;17.17;14.47;;;6.30;99.90;;;;;;5091910;28;20277;-67
2021/12/06 07:37:14;;;;;;;16.43;13.87;;;6.30;99.90;;;;;;5091911;28;20307;-66
2021/12/06 07:39:41;;;;;;;16.60;14.17;;;6.20;99.90;;;;;;5092027;28;20212;-66
2021/12/06 07:42:11;;;;;;;16.57;13.77;;;6.30;99.90;;;;;;5091589;28;20235;-66
2021/12/06 07:44:40;;;;;;;16.73;13.73;;;6.30;99.90;;;;;;5092011;28;20200;-66
2021/12/06 07:47:07;;;;;;;17.20;12.93;;;6.30;99.90;;;;;;5092117;28;20201;-66
2021/12/06 07:49:35;;;;;;;19.40;16.57;;;6.30;99.90;;;;;;5092012;28;20208;-66
2021/12/06 07:52:01;;;;;;;16.57;13.07;;;6.30;99.90;;;;;;5091939;28;20273;-66
2021/12/06 07:54:28;;;;;;;16.27;12.73;;;6.30;99.90;;;;;;5091416;28;20550;-66
2021/12/06 07:56:55;;;;;;;17.93;14.87;;;6.40;99.90;;;;;;5091980;28;20216;-66
2021/12/06 07:59:21;;;;;;;19.30;14.77;;;6.30;99.90;;;;;;5092172;28;20211;-66
2021/12/06 08:01:50;;;;;;;16.40;13.70;;;6.40;99.90;;;;;;5091710;28;20699;-67
2021/12/06 08:04:17;;;;;;;15.90;13.50;;;6.40;99.90;;;;;;5091697;28;20270;-66
2021/12/06 08:06:44;;;;;;;18.20;14.83;;;6.50;99.90;;;;;;5092395;28;20208;-66
2021/12/06 08:09:11;;;;;;;17.30;13.90;;;6.60;99.90;;;;;;5092056;28;20207;-66
2021/12/06 08:11:37;;;;;;;17.83;14.60;;;6.60;99.90;;;;;;5091652;28;20311;-66
2021/12/06 08:14:05;;;;;;;17.43;14.37;;;6.70;99.90;;;;;;5091730;28;20200;-66
2021/12/06 08:16:40;;;;;;;19.37;14.77;;;6.80;99.90;;;;;;5091941;28;20200;-66
2021/12/06 08:19:08;;;;;;;17.97;14.87;;;6.70;99.90;;;;;;5091883;28;20270;-66
2021/12/06 08:21:36;;;;;;;19.50;15.33;;;6.70;99.90;;;;;;5091813;28;20232;-66
2021/12/06 08:24:04;;;;;;;17.90;14.57;;;6.80;99.90;;;;;;5091647;28;20265;-66
2021/12/06 08:26:33;;;;;;;18.87;14.80;;;6.70;99.90;;;;;;5091698;28;20729;-66
2021/12/06 08:29:05;;;;;;;19.23;14.43;;;6.30;99.90;;;;;;5091881;28;20204;-66
2021/12/06 08:31:32;;;;;;;42.90;28.67;;;6.20;99.90;;;;;;5091791;28;20228;-66
2021/12/06 08:33:58;;;;;;;38.13;25.30;;;6.30;99.90;;;;;;5091429;28;20704;-66
2021/12/06 08:36:27;;;;;;;19.90;15.57;;;6.50;99.90;;;;;;5091285;28;20208;-66
2021/12/06 08:38:55;;;;;;;28.07;22.57;;;6.60;99.90;;;;;;5091809;28;20215;-66
2021/12/06 08:41:24;;;;;;;19.87;15.63;;;6.70;99.90;;;;;;5091471;28;20620;-66
2021/12/06 08:43:53;;;;;;;19.87;15.47;;;6.80;99.90;;;;;;5091194;28;20224;-66
2021/12/06 08:46:23;;;;;;;21.60;15.17;;;6.90;99.90;;;;;;5091517;28;20204;-66
2021/12/06 08:48:51;;;;;;;21.43;15.40;;;7.00;99.90;;;;;;5091962;28;20244;-66
2021/12/06 08:51:21;;;;;;;17.07;14.13;;;7.00;99.90;;;;;;5091463;28;20208;-66
2021/12/06 08:53:51;;;;;;;17.77;13.37;;;7.00;99.90;;;;;;5091391;28;20211;-66
2021/12/06 08:56:18;;;;;;;17.83;14.03;;;7.10;99.90;;;;;;5091307;28;20716;-66
2021/12/06 08:58:45;;;;;;;17.70;14.27;;;7.10;99.90;;;;;;5091422;28;20585;-66
2021/12/06 09:01:13;;;;;;;24.53;15.50;;;6.90;99.90;;;;;;5092086;28;20204;-66
2021/12/06 09:03:39;;;;;;;16.23;14.13;;;6.90;99.90;;;;;;5091433;28;20221;-65
2021/12/06 09:06:08;;;;;;;16.17;13.07;;;7.00;99.90;;;;;;5091635;28;20204;-65
2021/12/06 09:08:37;;;;;;;16.47;12.80;;;7.20;99.90;;;;;;5091783;28;20204;-66
2021/12/06 09:11:06;;;;;;;13.97;11.50;;;7.30;99.90;;;;;;5091523;28;20290;-66
2021/12/06 09:13:33;;;;;;;18.77;13.80;;;7.20;99.90;;;;;;5091383;28;20281;-66
2021/12/06 09:16:04;;;;;;;14.77;11.60;;;7.20;99.90;;;;;;5091216;28;20204;-66
2021/12/06 09:18:34;;;;;;;14.37;12.60;;;7.20;99.90;;;;;;5092474;28;20257;-66
2021/12/06 09:21:02;;;;;;;15.70;11.83;;;7.30;99.90;;;;;;5094933;28;20481;-67
2021/12/06 09:23:29;;;;;;;13.33;11.03;;;7.40;99.90;;;;;;5094689;28;20231;-67
2021/12/06 09:25:56;;;;;;;16.87;12.40;;;7.50;99.90;;;;;;5094760;28;20273;-66
2021/12/06 09:28:25;;;;;;;14.60;11.60;;;7.50;99.90;;;;;;5094699;28;20212;-67
2021/12/06 09:30:52;;;;;;;14.10;12.20;;;7.70;99.90;;;;;;5094894;28;20201;-66
2021/12/06 09:33:20;;;;;;;18.00;11.53;;;7.70;99.90;;;;;;5094588;28;20250;-65
2021/12/06 09:35:48;;;;;;;13.10;11.13;;;7.70;99.90;;;;;;5094687;28;20265;-65
2021/12/06 09:38:18;;;;;;;12.77;11.37;;;7.80;99.90;;;;;;5094698;28;20212;-65
2021/12/06 09:40:48;;;;;;;13.13;11.70;;;7.80;99.90;;;;;;5094325;28;20208;-65
2021/12/06 09:43:15;;;;;;;15.33;12.23;;;7.70;99.90;;;;;;5093682;28;20236;-65
2021/12/06 09:45:45;;;;;;;15.10;11.20;;;7.70;99.90;;;;;;5094469;28;20212;-65
2021/12/06 09:48:15;;;;;;;14.43;11.90;;;7.70;99.90;;;;;;5094657;28;20251;-65
2021/12/06 09:50:44;;;;;;;11.97;10.73;;;7.60;99.90;;;;;;5095824;28;20216;-65
2021/12/06 09:53:14;;;;;;;15.13;12.63;;;7.70;99.90;;;;;;5094918;28;20239;-65
2021/12/06 09:55:42;;;;;;;13.13;11.23;;;7.90;99.90;;;;;;5094932;28;20238;-63
2021/12/06 09:58:10;;;;;;;14.30;11.87;;;8.10;99.90;;;;;;5094816;28;20273;-63
2021/12/06 10:00:41;;;;;;;15.40;11.03;;;8.20;99.90;;;;;;5094606;28;20212;-63
2021/12/06 10:03:09;;;;;;;13.93;11.10;;;8.30;99.90;;;;;;5094164;28;20320;-61
2021/12/06 10:05:37;;;;;;;12.30;10.80;;;8.20;99.90;;;;;;5094692;28;20209;-61
2021/12/06 10:08:04;;;;;;;12.13;10.87;;;8.10;99.90;;;;;;5094184;28;20211;-61
2021/12/06 10:10:32;;;;;;;13.03;11.70;;;8.20;99.90;;;;;;5094457;28;20273;-61
2021/12/06 10:12:59;;;;;;;12.87;11.47;;;8.30;99.90;;;;;;5093791;28;20236;-61
2021/12/06 10:15:28;;;;;;;15.90;12.73;;;8.20;99.90;;;;;;5093903;28;20200;-60
2021/12/06 10:17:57;;;;;;;12.87;11.43;;;8.50;99.90;;;;;;5093915;28;20337;-60
2021/12/06 10:20:27;;;;;;;13.07;11.57;;;8.80;99.90;;;;;;5093721;28;20204;-61
2021/12/06 10:22:54;;;;;;;13.73;11.03;;;9.00;99.90;;;;;;5093423;28;20224;-62
2021/12/06 10:25:21;;;;;;;12.93;11.30;;;9.00;99.90;;;;;;5093941;28;20261;-60
2021/12/06 10:27:53;;;;;;;13.67;11.77;;;8.80;99.90;;;;;;5093772;28;20648;-60
2021/12/06 10:30:21;;;;;;;14.10;12.23;;;8.70;99.90;;;;;;5093489;28;20269;-60
2021/12/06 10:32:48;;;;;;;14.60;12.10;;;8.50;99.90;;;;;;5093616;28;20224;-60
2021/12/06 10:35:16;;;;;;;14.50;12.23;;;8.20;99.90;;;;;;5093391;28;20273;-60
2021/12/06 10:37:47;;;;;;;13.37;11.70;;;7.50;99.90;;;;;;5093644;28;20298;-60
2021/12/06 10:40:18;;;;;;;14.37;11.73;;;7.50;99.90;;;;;;5093688;28;20627;-61
2021/12/06 10:42:47;;;;;;;15.17;12.00;;;7.80;99.90;;;;;;5093031;28;20795;-60
2021/12/06 10:45:18;;;;;;;15.90;12.70;;;8.00;99.90;;;;;;5092965;28;20224;-60
2021/12/06 10:48:05;;;;;;;15.30;12.73;;;7.80;99.90;;;;;;5093099;28;20209;-60
2021/12/06 10:50:33;;;;;;;16.67;12.50;;;7.30;99.90;;;;;;5093179;28;20200;-60
2021/12/06 10:53:03;;;;;;;13.93;11.43;;;6.80;99.90;;;;;;5092945;28;20235;-60
2021/12/06 10:55:32;;;;;;;14.97;12.47;;;6.90;99.90;;;;;;5092933;28;20687;-60
2021/12/06 10:58:02;;;;;;;14.43;12.17;;;7.10;99.90;;;;;;5092912;28;20212;-60
2021/12/06 11:00:32;;;;;;;14.90;12.23;;;7.30;99.90;;;;;;5093001;28;20204;-60
2021/12/06 11:03:00;;;;;;;15.10;10.87;;;7.50;99.90;;;;;;5092628;28;20230;-60
2021/12/06 11:05:30;;;;;;;14.60;11.50;;;7.30;99.90;;;;;;5092976;28;20254;-60
2021/12/06 11:08:08;;;;;;;20.80;15.90;;;6.60;99.90;;;;;;5092877;28;20215;-60
2021/12/06 11:10:40;;;;;;;17.20;13.97;;;6.40;99.90;;;;;;5093349;28;20290;-60
2021/12/06 11:13:16;;;;;;;18.27;13.30;;;6.60;99.90;;;;;;5092657;28;20232;-60
2021/12/06 11:15:59;;;;;;;16.40;12.70;;;7.00;99.90;;;;;;5092544;28;20666;-60
2021/12/06 11:18:38;;;;;;;17.60;13.07;;;7.40;99.90;;;;;;5092724;28;20261;-64
2021/12/06 11:21:14;;;;;;;15.87;12.47;;;7.60;99.90;;;;;;5092811;28;20254;-59
2021/12/06 11:26:36;;;;;;;14.83;11.90;;;7.80;99.90;;;;;;5109445;27;20544;-58
2021/12/06 11:29:10;;;;;;;14.13;11.10;;;8.00;99.90;;;;;;5089235;28;20201;-58
2021/12/06 11:31:38;;;;;;;14.50;11.20;;;8.20;99.90;;;;;;5084651;28;20240;-58
2021/12/06 11:34:06;;;;;;;15.33;11.63;;;8.40;99.90;;;;;;5068040;28;20212;-59
2021/12/06 11:36:34;;;;;;;15.03;12.10;;;8.50;99.90;;;;;;5069044;28;20236;-60
2021/12/06 11:39:05;;;;;;;14.13;11.67;;;8.50;99.90;;;;;;5086514;22;20279;-55
2021/12/06 11:41:32;;;;;;;16.37;11.67;;;8.50;99.90;;;;;;5048633;28;20256;-55
2021/12/06 11:44:14;;;;;;;15.40;11.67;;;8.50;99.90;;;;;;5048684;28;20259;-56
2021/12/06 11:46:41;;;;;;;14.80;11.70;;;8.50;99.90;;;;;;5049023;28;20260;-55
2021/12/06 11:49:19;;;;;;;16.20;11.73;;;8.50;99.90;;;;;;5055709;28;20224;-55
2021/12/06 11:51:47;;;;;;;14.87;12.00;;;8.40;99.90;;;;;;5068713;28;20205;-55
2021/12/06 11:54:14;;;;;;;13.43;10.73;;;8.40;99.90;;;;;;5068210;28;20270;-55
2021/12/06 11:56:45;;;;;;;11.47;10.23;;;8.40;99.90;;;;;;5068899;28;20201;-55
2021/12/06 11:59:15;;;;;;;16.60;12.67;;;8.40;99.90;;;;;;5068728;28;20229;-55
2021/12/06 12:01:45;;;;;;;15.27;11.60;;;8.50;99.90;;;;;;5068626;28;20217;-55
2021/12/06 12:04:15;;;;;;;14.80;10.53;;;8.50;99.90;;;;;;5068372;28;20217;-55
2021/12/06 12:06:44;;;;;;;15.37;10.73;;;8.50;99.90;;;;;;5068537;28;20684;-55
2021/12/06 12:09:15;;;;;;;15.50;11.63;;;8.60;99.90;;;;;;5068454;28;20312;-54
2021/12/06 12:12:00;;;;;;;14.57;11.13;;;8.30;99.90;;;;;;5068639;28;20591;-55
2021/12/06 12:14:30;;;;;;;12.93;10.43;;;8.20;99.90;;;;;;5068065;28;20605;-54
2021/12/06 12:16:59;;;;;;;15.03;10.13;;;8.10;99.90;;;;;;5068068;28;20216;-56
2021/12/06 12:19:26;;;;;;;13.40;10.53;;;8.10;99.90;;;;;;5068028;28;20556;-56
2021/12/06 12:21:53;;;;;;;13.20;10.47;;;8.00;99.90;;;;;;5068160;28;20645;-55
2021/12/06 12:24:20;;;;;;;12.47;10.40;;;8.20;99.90;;;;;;5067987;28;20209;-55
2021/12/06 12:26:57;;;;;;;15.80;11.10;;;8.60;99.90;;;;;;5067735;28;20225;-55
2021/12/06 12:29:27;;;;;;;11.50;9.30;;;9.00;99.90;;;;;;5067937;28;20278;-55
2021/12/06 12:31:58;;;;;;;11.37;8.30;;;9.40;99.90;;;;;;5067600;28;20621;-56
2021/12/06 12:34:27;;;;;;;10.50;8.00;;;9.70;99.90;;;;;;5067643;28;20759;-55
2021/12/06 12:36:54;;;;;;;6.93;5.47;;;9.80;99.90;;;;;;5060298;28;20205;-56
2021/12/06 12:39:23;;;;;;;9.40;6.90;;;9.50;99.90;;;;;;5054506;28;20233;-54
2021/12/06 12:41:53;;;;;;;9.67;7.33;;;8.80;99.90;;;;;;5054611;28;20770;-55
2021/12/06 12:44:22;;;;;;;10.40;8.50;;;8.20;99.90;;;;;;5054214;28;20253;-54
2021/12/06 12:46:50;;;;;;;9.80;7.83;;;7.80;99.90;;;;;;5054455;28;20337;-55
2021/12/06 12:49:20;;;;;;;10.53;8.50;;;7.90;99.90;;;;;;5054558;28;20232;-56
2021/12/06 12:51:50;;;;;;;9.53;7.63;;;8.10;99.90;;;;;;5054754;28;20206;-55
2021/12/06 12:54:19;;;;;;;9.47;7.33;;;8.20;99.90;;;;;;5054037;28;20213;-56
2021/12/06 12:56:51;;;;;;;8.20;6.87;;;8.00;99.90;;;;;;5054265;28;20607;-56
2021/12/06 12:59:23;;;;;;;9.20;7.30;;;7.80;99.90;;;;;;5054143;28;20717;-55
2021/12/06 13:02:11;;;;;;;9.73;8.30;;;7.60;99.90;;;;;;5054271;28;20580;-55
2021/12/06 13:05:17;;;;;;;11.07;7.90;;;7.80;99.90;;;;;;5054039;28;20496;-55